sensor_id;sensor_type;location;lat;lon;timestamp;P1;durP1;ratioP1;P2;durP2;ratioP2
23232;SDS011;11785;49.500;8.288;2023-11-19T00:02:06;2.67;;;1.80;;
23232;SDS011;11785;49.500;8.288;2023-11-19T00:04:33;4.35;;;1.60;;
23232;SDS011;11785;49.500;8.288;2023-11-19T00:07:04;3.83;;;2.00;;
23232;SDS011;11785;49.500;8.288;2023-11-19T00:09:31;2.97;;;1.58;;
23232;SDS011;11785;49.500;8.288;2023-11-19T00:12:01;3.50;;;2.40;;
23232;SDS011;11785;49.500;8.288;2023-11-19T00:14:27;4.78;;;3.28;;
23232;SDS011;11785;49.500;8.288;2023-11-19T00:16:54;7.93;;;2.72;;
23232;SDS011;11785;49.500;8.288;2023-11-19T00:19:19;4.57;;;2.67;;
23232;SDS011;11785;49.500;8.288;2023-11-19T00:21:45;6.35;;;2.70;;
23232;SDS011;11785;49.500;8.288;2023-11-19T00:24:11;3.25;;;2.45;;
23232;SDS011;11785;49.500;8.288;2023-11-19T00:26:37;4.53;;;1.70;;
23232;SDS011;11785;49.500;8.288;2023-11-19T00:29:03;1.88;;;1.50;;
23232;SDS011;11785;49.500;8.288;2023-11-19T00:31:29;0.93;;;0.82;;
23232;SDS011;11785;49.500;8.288;2023-11-19T00:33:54;1.33;;;0.82;;
23232;SDS011;11785;49.500;8.288;2023-11-19T00:36:20;0.70;;;0.68;;
23232;SDS011;11785;49.500;8.288;2023-11-19T00:38:45;0.82;;;0.50;;
23232;SDS011;11785;49.500;8.288;2023-11-19T00:41:11;0.47;;;0.47;;
23232;SDS011;11785;49.500;8.288;2023-11-19T00:43:37;1.08;;;0.40;;
23232;SDS011;11785;49.500;8.288;2023-11-19T00:46:03;0.40;;;0.30;;
23232;SDS011;11785;49.500;8.288;2023-11-19T00:48:31;1.15;;;0.30;;
23232;SDS011;11785;49.500;8.288;2023-11-19T00:50:57;0.30;;;0.30;;
23232;SDS011;11785;49.500;8.288;2023-11-19T00:53:22;0.52;;;0.38;;
23232;SDS011;11785;49.500;8.288;2023-11-19T00:55:48;0.30;;;0.30;;
23232;SDS011;11785;49.500;8.288;2023-11-19T00:58:14;0.68;;;0.40;;
23232;SDS011;11785;49.500;8.288;2023-11-19T01:00:39;0.80;;;0.35;;
23232;SDS011;11785;49.500;8.288;2023-11-19T01:03:05;2.25;;;0.60;;
23232;SDS011;11785;49.500;8.288;2023-11-19T01:05:32;1.02;;;0.30;;
23232;SDS011;11785;49.500;8.288;2023-11-19T01:07:58;0.20;;;0.20;;
23232;SDS011;11785;49.500;8.288;2023-11-19T01:10:23;1.85;;;0.30;;
23232;SDS011;11785;49.500;8.288;2023-11-19T01:12:50;2.53;;;0.75;;
23232;SDS011;11785;49.500;8.288;2023-11-19T01:15:16;4.90;;;1.38;;
23232;SDS011;11785;49.500;8.288;2023-11-19T01:17:43;1.65;;;1.55;;
23232;SDS011;11785;49.500;8.288;2023-11-19T01:20:09;1.98;;;1.83;;
23232;SDS011;11785;49.500;8.288;2023-11-19T01:22:38;4.03;;;1.40;;
23232;SDS011;11785;49.500;8.288;2023-11-19T01:25:04;2.05;;;1.10;;
23232;SDS011;11785;49.500;8.288;2023-11-19T01:27:31;4.20;;;1.40;;
23232;SDS011;11785;49.500;8.288;2023-11-19T01:29:56;1.02;;;0.93;;
23232;SDS011;11785;49.500;8.288;2023-11-19T01:32:22;0.55;;;0.30;;
23232;SDS011;11785;49.500;8.288;2023-11-19T01:34:49;0.60;;;0.28;;
23232;SDS011;11785;49.500;8.288;2023-11-19T01:37:14;0.98;;;0.13;;
23232;SDS011;11785;49.500;8.288;2023-11-19T01:39:43;0.30;;;0.30;;
23232;SDS011;11785;49.500;8.288;2023-11-19T01:42:09;0.38;;;0.22;;
23232;SDS011;11785;49.500;8.288;2023-11-19T01:44:34;0.57;;;0.30;;
23232;SDS011;11785;49.500;8.288;2023-11-19T01:47:00;0.20;;;0.20;;
23232;SDS011;11785;49.500;8.288;2023-11-19T01:49:27;0.30;;;0.30;;
23232;SDS011;11785;49.500;8.288;2023-11-19T01:51:53;0.82;;;0.20;;
23232;SDS011;11785;49.500;8.288;2023-11-19T01:54:19;0.40;;;0.40;;
23232;SDS011;11785;49.500;8.288;2023-11-19T01:56:45;0.47;;;0.13;;
23232;SDS011;11785;49.500;8.288;2023-11-19T01:59:11;0.77;;;0.28;;
23232;SDS011;11785;49.500;8.288;2023-11-19T02:01:38;0.73;;;0.30;;
23232;SDS011;11785;49.500;8.288;2023-11-19T02:04:05;0.20;;;0.20;;
23232;SDS011;11785;49.500;8.288;2023-11-19T02:06:32;0.38;;;0.20;;
23232;SDS011;11785;49.500;8.288;2023-11-19T02:08:59;0.30;;;0.28;;
23232;SDS011;11785;49.500;8.288;2023-11-19T02:11:25;0.17;;;0.17;;
23232;SDS011;11785;49.500;8.288;2023-11-19T02:13:54;0.47;;;0.20;;
23232;SDS011;11785;49.500;8.288;2023-11-19T02:16:21;0.20;;;0.20;;
23232;SDS011;11785;49.500;8.288;2023-11-19T02:18:46;0.20;;;0.20;;
23232;SDS011;11785;49.500;8.288;2023-11-19T02:21:13;0.30;;;0.22;;
23232;SDS011;11785;49.500;8.288;2023-11-19T02:23:40;0.30;;;0.30;;
23232;SDS011;11785;49.500;8.288;2023-11-19T02:31:07;0.15;;;0.15;;
23232;SDS011;11785;49.500;8.288;2023-11-19T02:33:36;0.15;;;0.15;;
23232;SDS011;11785;49.500;8.288;2023-11-19T02:36:03;0.20;;;0.20;;
23232;SDS011;11785;49.500;8.288;2023-11-19T02:38:29;0.55;;;0.20;;
23232;SDS011;11785;49.500;8.288;2023-11-19T02:40:56;1.15;;;0.30;;
23232;SDS011;11785;49.500;8.288;2023-11-19T02:43:22;0.17;;;0.17;;
23232;SDS011;11785;49.500;8.288;2023-11-19T02:45:48;0.20;;;0.20;;
23232;SDS011;11785;49.500;8.288;2023-11-19T02:48:13;0.20;;;0.20;;
23232;SDS011;11785;49.500;8.288;2023-11-19T02:50:41;0.30;;;0.22;;
23232;SDS011;11785;49.500;8.288;2023-11-19T02:53:06;0.68;;;0.20;;
23232;SDS011;11785;49.500;8.288;2023-11-19T02:55:32;0.77;;;0.30;;
23232;SDS011;11785;49.500;8.288;2023-11-19T02:58:02;1.65;;;0.20;;
23232;SDS011;11785;49.500;8.288;2023-11-19T03:00:34;0.30;;;0.30;;
23232;SDS011;11785;49.500;8.288;2023-11-19T03:03:12;2.60;;;0.30;;
23232;SDS011;11785;49.500;8.288;2023-11-19T03:05:47;0.40;;;0.28;;
23232;SDS011;11785;49.500;8.288;2023-11-19T03:08:13;0.30;;;0.30;;
23232;SDS011;11785;49.500;8.288;2023-11-19T03:10:40;0.10;;;0.10;;
23232;SDS011;11785;49.500;8.288;2023-11-19T03:13:06;0.85;;;0.82;;
23232;SDS011;11785;49.500;8.288;2023-11-19T03:15:37;0.50;;;0.20;;
23232;SDS011;11785;49.500;8.288;2023-11-19T03:18:03;1.35;;;0.30;;
23232;SDS011;11785;49.500;8.288;2023-11-19T03:20:29;0.32;;;0.30;;
23232;SDS011;11785;49.500;8.288;2023-11-19T03:22:55;0.22;;;0.22;;
23232;SDS011;11785;49.500;8.288;2023-11-19T03:25:22;0.65;;;0.40;;
23232;SDS011;11785;49.500;8.288;2023-11-19T03:27:51;0.38;;;0.30;;
23232;SDS011;11785;49.500;8.288;2023-11-19T03:30:18;0.80;;;0.30;;
23232;SDS011;11785;49.500;8.288;2023-11-19T03:32:45;2.28;;;0.40;;
23232;SDS011;11785;49.500;8.288;2023-11-19T03:35:11;0.40;;;0.40;;
23232;SDS011;11785;49.500;8.288;2023-11-19T03:37:37;0.30;;;0.30;;
23232;SDS011;11785;49.500;8.288;2023-11-19T03:40:04;0.50;;;0.50;;
23232;SDS011;11785;49.500;8.288;2023-11-19T03:42:31;0.90;;;0.30;;
23232;SDS011;11785;49.500;8.288;2023-11-19T03:44:56;0.38;;;0.38;;
23232;SDS011;11785;49.500;8.288;2023-11-19T03:47:22;0.63;;;0.50;;
23232;SDS011;11785;49.500;8.288;2023-11-19T03:49:48;0.40;;;0.40;;
23232;SDS011;11785;49.500;8.288;2023-11-19T03:52:14;0.52;;;0.52;;
23232;SDS011;11785;49.500;8.288;2023-11-19T03:54:40;0.40;;;0.40;;
23232;SDS011;11785;49.500;8.288;2023-11-19T03:57:06;1.98;;;0.50;;
23232;SDS011;11785;49.500;8.288;2023-11-19T03:59:32;0.88;;;0.60;;
23232;SDS011;11785;49.500;8.288;2023-11-19T04:01:58;0.73;;;0.50;;
23232;SDS011;11785;49.500;8.288;2023-11-19T04:04:25;0.60;;;0.52;;
23232;SDS011;11785;49.500;8.288;2023-11-19T04:06:52;1.20;;;0.65;;
23232;SDS011;11785;49.500;8.288;2023-11-19T04:09:18;0.60;;;0.60;;
23232;SDS011;11785;49.500;8.288;2023-11-19T04:11:43;0.70;;;0.60;;
23232;SDS011;11785;49.500;8.288;2023-11-19T04:14:09;0.65;;;0.65;;
23232;SDS011;11785;49.500;8.288;2023-11-19T04:16:35;0.98;;;0.90;;
23232;SDS011;11785;49.500;8.288;2023-11-19T04:19:01;1.00;;;1.00;;
23232;SDS011;11785;49.500;8.288;2023-11-19T04:21:26;0.80;;;0.80;;
23232;SDS011;11785;49.500;8.288;2023-11-19T04:23:52;0.70;;;0.70;;
23232;SDS011;11785;49.500;8.288;2023-11-19T04:26:17;1.13;;;0.85;;
23232;SDS011;11785;49.500;8.288;2023-11-19T04:28:43;0.77;;;0.77;;
23232;SDS011;11785;49.500;8.288;2023-11-19T04:31:08;0.77;;;0.77;;
23232;SDS011;11785;49.500;8.288;2023-11-19T04:33:34;1.05;;;0.80;;
23232;SDS011;11785;49.500;8.288;2023-11-19T04:36:00;0.90;;;0.85;;
23232;SDS011;11785;49.500;8.288;2023-11-19T04:38:25;1.20;;;1.10;;
23232;SDS011;11785;49.500;8.288;2023-11-19T04:40:51;0.70;;;0.65;;
23232;SDS011;11785;49.500;8.288;2023-11-19T04:43:17;3.78;;;1.10;;
23232;SDS011;11785;49.500;8.288;2023-11-19T04:45:43;1.42;;;0.95;;
23232;SDS011;11785;49.500;8.288;2023-11-19T04:48:08;0.90;;;0.90;;
23232;SDS011;11785;49.500;8.288;2023-11-19T04:50:34;0.80;;;0.80;;
23232;SDS011;11785;49.500;8.288;2023-11-19T04:52:59;1.73;;;1.10;;
23232;SDS011;11785;49.500;8.288;2023-11-19T04:55:25;0.98;;;0.90;;
23232;SDS011;11785;49.500;8.288;2023-11-19T04:57:51;0.93;;;0.93;;
23232;SDS011;11785;49.500;8.288;2023-11-19T05:00:19;1.42;;;0.73;;
23232;SDS011;11785;49.500;8.288;2023-11-19T05:02:46;1.10;;;1.00;;
23232;SDS011;11785;49.500;8.288;2023-11-19T05:05:12;1.10;;;1.00;;
23232;SDS011;11785;49.500;8.288;2023-11-19T05:07:37;0.95;;;0.90;;
23232;SDS011;11785;49.500;8.288;2023-11-19T05:10:03;1.23;;;1.13;;
23232;SDS011;11785;49.500;8.288;2023-11-19T05:12:31;1.30;;;1.20;;
23232;SDS011;11785;49.500;8.288;2023-11-19T05:14:56;1.75;;;1.00;;
23232;SDS011;11785;49.500;8.288;2023-11-19T05:17:22;1.58;;;1.00;;
23232;SDS011;11785;49.500;8.288;2023-11-19T05:19:48;1.20;;;1.10;;
23232;SDS011;11785;49.500;8.288;2023-11-19T05:22:14;0.95;;;0.85;;
23232;SDS011;11785;49.500;8.288;2023-11-19T05:24:39;1.58;;;0.90;;
23232;SDS011;11785;49.500;8.288;2023-11-19T05:27:05;3.72;;;1.00;;
23232;SDS011;11785;49.500;8.288;2023-11-19T05:29:32;1.17;;;1.00;;
23232;SDS011;11785;49.500;8.288;2023-11-19T05:31:58;1.55;;;1.30;;
23232;SDS011;11785;49.500;8.288;2023-11-19T05:34:24;2.20;;;1.30;;
23232;SDS011;11785;49.500;8.288;2023-11-19T05:36:50;2.08;;;1.20;;
23232;SDS011;11785;49.500;8.288;2023-11-19T05:39:16;1.60;;;1.15;;
23232;SDS011;11785;49.500;8.288;2023-11-19T05:41:43;2.50;;;1.30;;
23232;SDS011;11785;49.500;8.288;2023-11-19T05:44:09;2.40;;;1.30;;
23232;SDS011;11785;49.500;8.288;2023-11-19T05:46:34;1.10;;;1.00;;
23232;SDS011;11785;49.500;8.288;2023-11-19T05:49:05;2.15;;;1.00;;
23232;SDS011;11785;49.500;8.288;2023-11-19T05:51:30;3.33;;;1.35;;
23232;SDS011;11785;49.500;8.288;2023-11-19T05:53:56;1.40;;;1.30;;
23232;SDS011;11785;49.500;8.288;2023-11-19T05:56:22;1.75;;;1.42;;
23232;SDS011;11785;49.500;8.288;2023-11-19T05:58:48;1.40;;;1.30;;
23232;SDS011;11785;49.500;8.288;2023-11-19T06:01:14;3.88;;;1.42;;
23232;SDS011;11785;49.500;8.288;2023-11-19T06:03:40;2.65;;;1.50;;
23232;SDS011;11785;49.500;8.288;2023-11-19T06:06:06;2.22;;;1.40;;
23232;SDS011;11785;49.500;8.288;2023-11-19T06:08:31;2.95;;;1.75;;
23232;SDS011;11785;49.500;8.288;2023-11-19T06:10:57;3.05;;;1.60;;
23232;SDS011;11785;49.500;8.288;2023-11-19T06:13:23;2.03;;;1.25;;
23232;SDS011;11785;49.500;8.288;2023-11-19T06:15:50;1.88;;;1.40;;
23232;SDS011;11785;49.500;8.288;2023-11-19T06:18:16;3.25;;;1.50;;
23232;SDS011;11785;49.500;8.288;2023-11-19T06:20:41;2.08;;;1.08;;
23232;SDS011;11785;49.500;8.288;2023-11-19T06:23:08;1.65;;;1.40;;
23232;SDS011;11785;49.500;8.288;2023-11-19T06:25:33;1.60;;;1.20;;
23232;SDS011;11785;49.500;8.288;2023-11-19T06:28:00;1.65;;;1.45;;
23232;SDS011;11785;49.500;8.288;2023-11-19T06:30:26;1.60;;;1.40;;
23232;SDS011;11785;49.500;8.288;2023-11-19T06:32:53;1.25;;;1.05;;
23232;SDS011;11785;49.500;8.288;2023-11-19T06:35:19;2.05;;;1.08;;
23232;SDS011;11785;49.500;8.288;2023-11-19T06:37:44;1.85;;;0.95;;
23232;SDS011;11785;49.500;8.288;2023-11-19T06:40:10;2.25;;;1.30;;
23232;SDS011;11785;49.500;8.288;2023-11-19T06:42:37;1.85;;;1.08;;
23232;SDS011;11785;49.500;8.288;2023-11-19T06:45:03;5.22;;;1.38;;
23232;SDS011;11785;49.500;8.288;2023-11-19T06:47:29;2.45;;;1.42;;
23232;SDS011;11785;49.500;8.288;2023-11-19T06:49:55;1.30;;;1.20;;
23232;SDS011;11785;49.500;8.288;2023-11-19T06:52:21;2.72;;;1.20;;
23232;SDS011;11785;49.500;8.288;2023-11-19T06:54:47;1.42;;;1.10;;
23232;SDS011;11785;49.500;8.288;2023-11-19T06:57:12;1.27;;;1.10;;
23232;SDS011;11785;49.500;8.288;2023-11-19T06:59:38;3.03;;;1.50;;
23232;SDS011;11785;49.500;8.288;2023-11-19T07:02:04;4.22;;;1.35;;
23232;SDS011;11785;49.500;8.288;2023-11-19T07:04:31;3.00;;;1.23;;
23232;SDS011;11785;49.500;8.288;2023-11-19T07:06:58;2.47;;;1.25;;
23232;SDS011;11785;49.500;8.288;2023-11-19T07:09:24;3.70;;;1.30;;
23232;SDS011;11785;49.500;8.288;2023-11-19T07:11:50;2.58;;;1.27;;
23232;SDS011;11785;49.500;8.288;2023-11-19T07:14:17;4.28;;;1.60;;
23232;SDS011;11785;49.500;8.288;2023-11-19T07:16:43;3.00;;;1.30;;
23232;SDS011;11785;49.500;8.288;2023-11-19T07:19:09;3.30;;;1.65;;
23232;SDS011;11785;49.500;8.288;2023-11-19T07:21:35;4.55;;;1.10;;
23232;SDS011;11785;49.500;8.288;2023-11-19T07:24:04;3.80;;;1.17;;
23232;SDS011;11785;49.500;8.288;2023-11-19T07:26:30;3.38;;;1.25;;
23232;SDS011;11785;49.500;8.288;2023-11-19T07:28:56;1.92;;;1.02;;
23232;SDS011;11785;49.500;8.288;2023-11-19T07:31:21;1.58;;;1.25;;
23232;SDS011;11785;49.500;8.288;2023-11-19T07:33:48;3.28;;;1.05;;
23232;SDS011;11785;49.500;8.288;2023-11-19T07:36:15;1.70;;;0.90;;
23232;SDS011;11785;49.500;8.288;2023-11-19T07:38:41;3.67;;;1.23;;
23232;SDS011;11785;49.500;8.288;2023-11-19T07:41:07;2.97;;;1.55;;
23232;SDS011;11785;49.500;8.288;2023-11-19T07:43:37;3.22;;;1.27;;
23232;SDS011;11785;49.500;8.288;2023-11-19T07:46:04;3.53;;;1.23;;
23232;SDS011;11785;49.500;8.288;2023-11-19T07:48:32;1.65;;;1.30;;
23232;SDS011;11785;49.500;8.288;2023-11-19T07:50:59;3.17;;;1.50;;
23232;SDS011;11785;49.500;8.288;2023-11-19T07:53:25;3.03;;;1.38;;
23232;SDS011;11785;49.500;8.288;2023-11-19T07:55:51;2.13;;;0.80;;
23232;SDS011;11785;49.500;8.288;2023-11-19T07:58:16;2.45;;;1.30;;
23232;SDS011;11785;49.500;8.288;2023-11-19T08:00:42;2.83;;;1.42;;
23232;SDS011;11785;49.500;8.288;2023-11-19T08:03:07;4.88;;;1.48;;
23232;SDS011;11785;49.500;8.288;2023-11-19T08:05:33;3.33;;;1.30;;
23232;SDS011;11785;49.500;8.288;2023-11-19T08:07:58;4.50;;;1.58;;
23232;SDS011;11785;49.500;8.288;2023-11-19T08:10:24;2.15;;;1.10;;
23232;SDS011;11785;49.500;8.288;2023-11-19T08:12:50;2.33;;;1.27;;
23232;SDS011;11785;49.500;8.288;2023-11-19T08:15:16;3.95;;;1.85;;
23232;SDS011;11785;49.500;8.288;2023-11-19T08:17:41;2.13;;;1.52;;
23232;SDS011;11785;49.500;8.288;2023-11-19T08:20:10;3.50;;;1.55;;
23232;SDS011;11785;49.500;8.288;2023-11-19T08:22:36;4.43;;;1.38;;
23232;SDS011;11785;49.500;8.288;2023-11-19T08:25:03;3.95;;;1.48;;
23232;SDS011;11785;49.500;8.288;2023-11-19T08:27:30;2.28;;;1.48;;
23232;SDS011;11785;49.500;8.288;2023-11-19T08:29:55;1.75;;;1.38;;
23232;SDS011;11785;49.500;8.288;2023-11-19T08:32:27;3.75;;;1.40;;
23232;SDS011;11785;49.500;8.288;2023-11-19T08:34:52;3.03;;;2.05;;
23232;SDS011;11785;49.500;8.288;2023-11-19T08:37:19;4.35;;;2.95;;
23232;SDS011;11785;49.500;8.288;2023-11-19T08:39:46;4.65;;;2.20;;
23232;SDS011;11785;49.500;8.288;2023-11-19T08:42:12;4.65;;;3.60;;
23232;SDS011;11785;49.500;8.288;2023-11-19T08:44:38;3.05;;;1.33;;
23232;SDS011;11785;49.500;8.288;2023-11-19T08:47:04;3.33;;;1.20;;
23232;SDS011;11785;49.500;8.288;2023-11-19T08:49:29;3.30;;;1.40;;
23232;SDS011;11785;49.500;8.288;2023-11-19T08:51:55;2.92;;;1.40;;
23232;SDS011;11785;49.500;8.288;2023-11-19T08:54:20;3.45;;;1.80;;
23232;SDS011;11785;49.500;8.288;2023-11-19T08:56:47;3.65;;;1.40;;
23232;SDS011;11785;49.500;8.288;2023-11-19T08:59:13;2.05;;;1.40;;
23232;SDS011;11785;49.500;8.288;2023-11-19T09:01:40;3.15;;;1.48;;
23232;SDS011;11785;49.500;8.288;2023-11-19T09:04:06;5.45;;;1.42;;
23232;SDS011;11785;49.500;8.288;2023-11-19T09:06:31;3.50;;;1.05;;
23232;SDS011;11785;49.500;8.288;2023-11-19T09:08:57;2.88;;;1.05;;
23232;SDS011;11785;49.500;8.288;2023-11-19T09:11:26;5.03;;;1.15;;
23232;SDS011;11785;49.500;8.288;2023-11-19T09:13:52;3.60;;;1.20;;
23232;SDS011;11785;49.500;8.288;2023-11-19T09:16:18;2.67;;;1.15;;
23232;SDS011;11785;49.500;8.288;2023-11-19T09:18:43;4.35;;;1.10;;
23232;SDS011;11785;49.500;8.288;2023-11-19T09:21:12;4.45;;;1.15;;
23232;SDS011;11785;49.500;8.288;2023-11-19T09:23:38;3.38;;;1.20;;
23232;SDS011;11785;49.500;8.288;2023-11-19T09:26:06;2.15;;;1.20;;
23232;SDS011;11785;49.500;8.288;2023-11-19T09:28:35;3.55;;;1.10;;
23232;SDS011;11785;49.500;8.288;2023-11-19T09:31:00;4.05;;;1.20;;
23232;SDS011;11785;49.500;8.288;2023-11-19T09:33:29;2.22;;;1.17;;
23232;SDS011;11785;49.500;8.288;2023-11-19T09:35:55;3.63;;;1.23;;
23232;SDS011;11785;49.500;8.288;2023-11-19T09:38:21;2.17;;;1.02;;
23232;SDS011;11785;49.500;8.288;2023-11-19T09:40:46;1.90;;;0.75;;
23232;SDS011;11785;49.500;8.288;2023-11-19T09:43:12;4.35;;;0.85;;
23232;SDS011;11785;49.500;8.288;2023-11-19T09:45:49;1.42;;;0.98;;
23232;SDS011;11785;49.500;8.288;2023-11-19T09:48:19;2.95;;;1.10;;
23232;SDS011;11785;49.500;8.288;2023-11-19T09:50:45;4.78;;;1.30;;
23232;SDS011;11785;49.500;8.288;2023-11-19T09:53:13;1.88;;;0.82;;
23232;SDS011;11785;49.500;8.288;2023-11-19T09:55:39;3.83;;;0.88;;
23232;SDS011;11785;49.500;8.288;2023-11-19T09:58:06;3.15;;;1.02;;
23232;SDS011;11785;49.500;8.288;2023-11-19T10:00:32;4.68;;;1.10;;
23232;SDS011;11785;49.500;8.288;2023-11-19T10:02:59;4.05;;;1.08;;
23232;SDS011;11785;49.500;8.288;2023-11-19T10:05:25;3.03;;;0.90;;
23232;SDS011;11785;49.500;8.288;2023-11-19T10:07:51;3.45;;;1.08;;
23232;SDS011;11785;49.500;8.288;2023-11-19T10:10:17;1.70;;;0.75;;
23232;SDS011;11785;49.500;8.288;2023-11-19T10:12:47;3.17;;;0.93;;
23232;SDS011;11785;49.500;8.288;2023-11-19T10:15:22;2.03;;;0.80;;
23232;SDS011;11785;49.500;8.288;2023-11-19T10:17:52;5.45;;;1.08;;
23232;SDS011;11785;49.500;8.288;2023-11-19T10:20:21;3.95;;;0.75;;
23232;SDS011;11785;49.500;8.288;2023-11-19T10:22:47;5.00;;;0.98;;
23232;SDS011;11785;49.500;8.288;2023-11-19T10:25:22;5.05;;;1.20;;
23232;SDS011;11785;49.500;8.288;2023-11-19T10:27:50;7.22;;;1.25;;
23232;SDS011;11785;49.500;8.288;2023-11-19T10:30:17;3.97;;;0.93;;
23232;SDS011;11785;49.500;8.288;2023-11-19T10:32:45;5.93;;;1.27;;
23232;SDS011;11785;49.500;8.288;2023-11-19T10:35:10;9.05;;;0.93;;
23232;SDS011;11785;49.500;8.288;2023-11-19T10:37:38;2.75;;;0.90;;
23232;SDS011;11785;49.500;8.288;2023-11-19T10:40:04;2.40;;;0.98;;
23232;SDS011;11785;49.500;8.288;2023-11-19T10:42:30;3.30;;;0.98;;
23232;SDS011;11785;49.500;8.288;2023-11-19T10:44:56;5.05;;;0.98;;
23232;SDS011;11785;49.500;8.288;2023-11-19T10:47:22;3.53;;;1.00;;
23232;SDS011;11785;49.500;8.288;2023-11-19T10:49:48;1.98;;;0.95;;
23232;SDS011;11785;49.500;8.288;2023-11-19T10:52:17;4.63;;;1.20;;
23232;SDS011;11785;49.500;8.288;2023-11-19T10:54:48;6.10;;;1.77;;
23232;SDS011;11785;49.500;8.288;2023-11-19T10:57:20;13.27;;;4.70;;
23232;SDS011;11785;49.500;8.288;2023-11-19T10:59:49;5.75;;;1.67;;
23232;SDS011;11785;49.500;8.288;2023-11-19T11:02:23;2.53;;;1.05;;
23232;SDS011;11785;49.500;8.288;2023-11-19T11:04:55;2.72;;;1.00;;
23232;SDS011;11785;49.500;8.288;2023-11-19T11:07:21;6.38;;;1.50;;
23232;SDS011;11785;49.500;8.288;2023-11-19T11:09:50;8.02;;;2.28;;
23232;SDS011;11785;49.500;8.288;2023-11-19T11:12:17;3.05;;;1.10;;
23232;SDS011;11785;49.500;8.288;2023-11-19T11:14:49;7.10;;;1.17;;
23232;SDS011;11785;49.500;8.288;2023-11-19T11:17:17;3.88;;;1.05;;
23232;SDS011;11785;49.500;8.288;2023-11-19T11:19:43;4.22;;;1.00;;
23232;SDS011;11785;49.500;8.288;2023-11-19T11:22:09;3.17;;;0.60;;
23232;SDS011;11785;49.500;8.288;2023-11-19T11:38:12;7.90;;;2.90;;
23232;SDS011;11785;49.500;8.288;2023-11-19T11:40:39;2.42;;;1.00;;
23232;SDS011;11785;49.500;8.288;2023-11-19T11:43:20;2.67;;;0.90;;
23232;SDS011;11785;49.500;8.288;2023-11-19T11:46:37;6.28;;;2.38;;
23232;SDS011;11785;49.500;8.288;2023-11-19T11:49:02;5.05;;;1.00;;
23232;SDS011;11785;49.500;8.288;2023-11-19T12:02:19;3.80;;;1.05;;
23232;SDS011;11785;49.500;8.288;2023-11-19T12:04:50;3.60;;;1.00;;
23232;SDS011;11785;49.500;8.288;2023-11-19T12:07:23;2.35;;;0.80;;
23232;SDS011;11785;49.500;8.288;2023-11-19T12:09:57;3.22;;;0.88;;
23232;SDS011;11785;49.500;8.288;2023-11-19T12:12:34;6.00;;;1.00;;
23232;SDS011;11785;49.500;8.288;2023-11-19T12:15:10;6.78;;;0.75;;
23232;SDS011;11785;49.500;8.288;2023-11-19T12:17:36;4.68;;;0.82;;
23232;SDS011;11785;49.500;8.288;2023-11-19T12:20:04;1.67;;;0.85;;
23232;SDS011;11785;49.500;8.288;2023-11-19T12:22:33;3.28;;;1.00;;
23232;SDS011;11785;49.500;8.288;2023-11-19T12:25:00;2.47;;;0.75;;
23232;SDS011;11785;49.500;8.288;2023-11-19T12:27:27;3.55;;;1.30;;
23232;SDS011;11785;49.500;8.288;2023-11-19T12:29:53;3.15;;;1.23;;
23232;SDS011;11785;49.500;8.288;2023-11-19T12:32:19;3.08;;;1.00;;
23232;SDS011;11785;49.500;8.288;2023-11-19T12:34:44;2.88;;;1.10;;
23232;SDS011;11785;49.500;8.288;2023-11-19T12:37:10;3.53;;;0.88;;
23232;SDS011;11785;49.500;8.288;2023-11-19T12:39:36;4.63;;;1.15;;
23232;SDS011;11785;49.500;8.288;2023-11-19T12:42:01;3.08;;;0.70;;
23232;SDS011;11785;49.500;8.288;2023-11-19T12:44:27;4.90;;;0.95;;
23232;SDS011;11785;49.500;8.288;2023-11-19T12:49:29;4.03;;;0.90;;
23232;SDS011;11785;49.500;8.288;2023-11-19T12:51:55;3.35;;;1.10;;
23232;SDS011;11785;49.500;8.288;2023-11-19T12:54:31;3.50;;;1.10;;
23232;SDS011;11785;49.500;8.288;2023-11-19T12:56:57;3.85;;;1.17;;
23232;SDS011;11785;49.500;8.288;2023-11-19T12:59:23;4.35;;;0.85;;
23232;SDS011;11785;49.500;8.288;2023-11-19T13:01:58;4.03;;;1.10;;
23232;SDS011;11785;49.500;8.288;2023-11-19T13:04:28;5.18;;;0.98;;
23232;SDS011;11785;49.500;8.288;2023-11-19T13:06:56;4.28;;;1.10;;
23232;SDS011;11785;49.500;8.288;2023-11-19T13:09:23;2.47;;;0.70;;
23232;SDS011;11785;49.500;8.288;2023-11-19T13:11:49;5.43;;;0.90;;
23232;SDS011;11785;49.500;8.288;2023-11-19T13:14:16;3.20;;;1.20;;
23232;SDS011;11785;49.500;8.288;2023-11-19T13:16:41;2.97;;;0.70;;
23232;SDS011;11785;49.500;8.288;2023-11-19T13:19:07;3.42;;;0.65;;
23232;SDS011;11785;49.500;8.288;2023-11-19T13:21:36;4.90;;;1.38;;
23232;SDS011;11785;49.500;8.288;2023-11-19T13:24:03;2.38;;;0.82;;
23232;SDS011;11785;49.500;8.288;2023-11-19T13:26:28;7.38;;;1.00;;
23232;SDS011;11785;49.500;8.288;2023-11-19T13:28:54;4.25;;;0.70;;
23232;SDS011;11785;49.500;8.288;2023-11-19T13:31:19;2.65;;;0.63;;
23232;SDS011;11785;49.500;8.288;2023-11-19T13:33:45;3.35;;;0.80;;
23232;SDS011;11785;49.500;8.288;2023-11-19T13:36:10;3.90;;;0.82;;
23232;SDS011;11785;49.500;8.288;2023-11-19T13:38:39;5.22;;;1.27;;
23232;SDS011;11785;49.500;8.288;2023-11-19T13:41:09;3.53;;;1.05;;
23232;SDS011;11785;49.500;8.288;2023-11-19T13:43:36;1.70;;;0.65;;
23232;SDS011;11785;49.500;8.288;2023-11-19T13:46:02;5.15;;;0.90;;
23232;SDS011;11785;49.500;8.288;2023-11-19T13:48:27;5.22;;;0.90;;
23232;SDS011;11785;49.500;8.288;2023-11-19T13:50:54;3.17;;;1.40;;
23232;SDS011;11785;49.500;8.288;2023-11-19T13:53:20;4.18;;;1.15;;
23232;SDS011;11785;49.500;8.288;2023-11-19T13:55:46;1.90;;;0.52;;
23232;SDS011;11785;49.500;8.288;2023-11-19T13:58:12;1.95;;;0.73;;
23232;SDS011;11785;49.500;8.288;2023-11-19T14:00:38;3.85;;;0.70;;
23232;SDS011;11785;49.500;8.288;2023-11-19T14:03:04;1.90;;;0.60;;
23232;SDS011;11785;49.500;8.288;2023-11-19T14:05:30;6.22;;;0.82;;
23232;SDS011;11785;49.500;8.288;2023-11-19T14:07:55;2.17;;;0.60;;
23232;SDS011;11785;49.500;8.288;2023-11-19T14:10:21;3.78;;;0.88;;
23232;SDS011;11785;49.500;8.288;2023-11-19T14:12:47;4.05;;;0.85;;
23232;SDS011;11785;49.500;8.288;2023-11-19T14:15:14;2.95;;;0.70;;
23232;SDS011;11785;49.500;8.288;2023-11-19T14:17:42;4.18;;;0.90;;
23232;SDS011;11785;49.500;8.288;2023-11-19T14:20:08;2.20;;;0.70;;
23232;SDS011;11785;49.500;8.288;2023-11-19T14:22:40;4.80;;;1.02;;
23232;SDS011;11785;49.500;8.288;2023-11-19T14:25:07;1.90;;;0.70;;
23232;SDS011;11785;49.500;8.288;2023-11-19T14:27:35;2.17;;;0.88;;
23232;SDS011;11785;49.500;8.288;2023-11-19T14:30:05;3.72;;;0.95;;
23232;SDS011;11785;49.500;8.288;2023-11-19T14:32:31;3.80;;;1.02;;
23232;SDS011;11785;49.500;8.288;2023-11-19T14:34:57;4.32;;;0.80;;
23232;SDS011;11785;49.500;8.288;2023-11-19T14:37:23;4.97;;;1.08;;
23232;SDS011;11785;49.500;8.288;2023-11-19T14:39:48;3.33;;;1.10;;
23232;SDS011;11785;49.500;8.288;2023-11-19T14:42:15;4.70;;;0.90;;
23232;SDS011;11785;49.500;8.288;2023-11-19T14:44:42;4.13;;;0.98;;
23232;SDS011;11785;49.500;8.288;2023-11-19T14:47:07;3.15;;;1.20;;
23232;SDS011;11785;49.500;8.288;2023-11-19T14:49:36;2.78;;;1.10;;
23232;SDS011;11785;49.500;8.288;2023-11-19T14:52:02;6.45;;;1.10;;
23232;SDS011;11785;49.500;8.288;2023-11-19T14:54:29;4.25;;;1.00;;
23232;SDS011;11785;49.500;8.288;2023-11-19T14:56:55;6.53;;;0.93;;
23232;SDS011;11785;49.500;8.288;2023-11-19T14:59:21;5.10;;;0.93;;
23232;SDS011;11785;49.500;8.288;2023-11-19T15:01:47;5.28;;;1.65;;
23232;SDS011;11785;49.500;8.288;2023-11-19T15:04:13;7.80;;;2.30;;
23232;SDS011;11785;49.500;8.288;2023-11-19T15:06:38;5.00;;;2.80;;
23232;SDS011;11785;49.500;8.288;2023-11-19T15:09:04;10.95;;;2.78;;
23232;SDS011;11785;49.500;8.288;2023-11-19T15:11:30;6.88;;;1.30;;
23232;SDS011;11785;49.500;8.288;2023-11-19T15:13:56;4.68;;;0.98;;
23232;SDS011;11785;49.500;8.288;2023-11-19T15:16:21;5.07;;;1.38;;
23232;SDS011;11785;49.500;8.288;2023-11-19T15:18:58;6.53;;;1.17;;